Time;durP1;ratioP1;P1;durP2;ratioP2;P2;SDS_P1;SDS_P2;PMS_P1;PMS_P2;Temp;Humidity;BMP_temperature;BMP_pressure;BME280_temperature;BME280_humidity;BME280_pressure;Samples;Min_cycle;Max_cycle;Signal;HPM_P1;HPM_P2
2021/10/09 00:00:27;;;;;;;16.57;14.37;;;;;;;7.13;100.00;101994.03;5092533;28;20225;-74
2021/10/09 00:02:53;;;;;;;18.47;14.93;;;;;;;7.03;100.00;102012.06;5074208;28;20178;-74
2021/10/09 00:05:18;;;;;;;22.60;16.37;;;;;;;7.11;100.00;102019.81;5092217;28;20579;-75
2021/10/09 00:07:43;;;;;;;23.60;15.07;;;;;;;7.04;100.00;102036.25;5074414;28;20633;-75
2021/10/09 00:10:11;;;;;;;17.50;15.00;;;;;;;7.21;100.00;102038.97;5092416;28;20174;-75
2021/10/09 00:12:37;;;;;;;20.80;15.23;;;;;;;7.26;100.00;102035.50;5074191;28;20174;-74
2021/10/09 00:15:04;;;;;;;18.07;15.27;;;;;;;7.31;100.00;102032.84;5092051;28;20197;-74
2021/10/09 00:17:30;;;;;;;17.10;15.00;;;;;;;7.40;100.00;102026.75;5073906;28;20174;-75
2021/10/09 00:19:56;;;;;;;19.70;15.20;;;;;;;7.47;100.00;102021.94;5074066;28;20222;-75
2021/10/09 00:22:21;;;;;;;17.70;15.23;;;;;;;7.58;100.00;102022.06;5074027;28;20670;-74
2021/10/09 00:24:46;;;;;;;17.47;15.63;;;;;;;7.64;100.00;102023.78;5073756;28;20173;-74
2021/10/09 00:27:13;;;;;;;16.70;14.97;;;;;;;7.69;100.00;102024.69;5073869;28;20170;-75
2021/10/09 00:29:38;;;;;;;16.50;14.90;;;;;;;7.73;100.00;102019.53;5073804;28;20180;-74
2021/10/09 00:32:04;;;;;;;19.77;14.23;;;;;;;7.80;100.00;102024.78;5073793;28;20178;-75
2021/10/09 00:34:29;;;;;;;19.20;15.90;;;;;;;7.84;100.00;102025.94;5091085;28;20537;-74
2021/10/09 00:36:54;;;;;;;18.10;14.77;;;;;;;7.66;100.00;102019.72;5091689;28;20625;-74
2021/10/09 00:39:20;;;;;;;19.63;14.67;;;;;;;7.67;100.00;102015.13;5091590;28;20640;-75
2021/10/09 00:41:45;;;;;;;17.60;15.17;;;;;;;7.61;100.00;102011.50;5091619;28;20671;-75
2021/10/09 00:44:13;;;;;;;17.57;15.07;;;;;;;7.73;100.00;102014.09;5072587;28;20169;-75
2021/10/09 00:46:40;;;;;;;21.67;14.37;;;;;;;7.77;100.00;102017.94;5091356;28;20251;-75
2021/10/09 00:49:07;;;;;;;15.47;14.00;;;;;;;7.64;100.00;102013.72;5091360;28;20166;-75
2021/10/09 00:51:32;;;;;;;20.83;14.57;;;;;;;7.69;100.00;102013.78;5091423;28;20173;-76
2021/10/09 00:54:00;;;;;;;14.90;13.33;;;;;;;7.79;100.00;102021.25;5072837;28;20448;-74
2021/10/09 00:56:33;;;;;;;15.77;14.27;;;;;;;7.76;100.00;102019.03;5073471;28;20212;-75
2021/10/09 00:58:59;;;;;;;17.97;14.40;;;;;;;7.68;100.00;102011.34;5072338;28;20174;-75
2021/10/09 01:01:25;;;;;;;17.90;13.97;;;;;;;7.64;100.00;102013.72;5072942;28;20174;-74
2021/10/09 01:03:51;;;;;;;15.53;13.93;;;;;;;7.40;100.00;102005.00;5090939;28;20178;-75
2021/10/09 01:06:17;;;;;;;15.70;14.23;;;;;;;7.49;100.00;102012.69;5091094;28;20293;-75
2021/10/09 01:08:42;;;;;;;16.23;14.40;;;;;;;7.07;100.00;102013.19;5072900;28;20672;-75
2021/10/09 01:11:08;;;;;;;16.07;14.57;;;;;;;7.13;100.00;102013.03;5090957;28;20170;-74
2021/10/09 01:13:33;;;;;;;16.03;12.97;;;;;;;7.14;100.00;102006.53;5090840;28;20203;-73
2021/10/09 01:15:59;;;;;;;15.93;13.67;;;;;;;6.99;100.00;102002.78;5072501;28;20214;-74
2021/10/09 01:18:24;;;;;;;26.03;14.53;;;;;;;7.17;100.00;101950.84;5072558;28;20204;-75
2021/10/09 01:20:55;;;;;;;17.03;13.93;;;;;;;7.25;100.00;102003.97;5090834;28;20257;-75
2021/10/09 01:23:22;;;;;;;16.40;14.63;;;;;;;7.26;100.00;101995.56;5072536;28;20248;-75
2021/10/09 01:25:49;;;;;;;15.60;14.00;;;;;;;7.33;100.00;101998.91;5090433;28;20178;-74
2021/10/09 01:28:14;;;;;;;15.67;13.47;;;;;;;7.37;100.00;101999.22;5072518;28;20603;-75
2021/10/09 01:30:40;;;;;;;18.23;13.50;;;;;;;7.05;100.00;101980.03;5091089;28;20170;-75
2021/10/09 01:33:06;;;;;;;15.83;14.33;;;;;;;6.71;100.00;101996.38;5090674;28;20526;-74
2021/10/09 01:35:47;;;;;;;14.83;13.23;;;;;;;6.82;100.00;101983.78;5089933;28;20205;-74
2021/10/09 01:38:12;;;;;;;22.23;14.80;;;;;;;6.65;100.00;101978.31;5072894;28;20700;-75
2021/10/09 01:40:38;;;;;;;15.57;14.07;;;;;;;6.62;100.00;101935.38;5072410;28;20272;-74
2021/10/09 01:43:10;;;;;;;17.63;14.73;;;;;;;6.75;100.00;101943.19;5072726;28;20541;-75
2021/10/09 01:45:36;;;;;;;15.53;13.93;;;;;;;6.82;100.00;101952.00;5090451;28;20218;-75
2021/10/09 01:48:02;;;;;;;16.17;14.57;;;;;;;6.56;100.00;101945.34;5090610;28;20663;-75
2021/10/09 01:50:27;;;;;;;16.77;13.77;;;;;;;6.73;100.00;101939.06;5090575;28;20173;-75
2021/10/09 01:52:52;;;;;;;18.70;14.30;;;;;;;6.66;100.00;101952.03;5071014;28;20178;-74
2021/10/09 01:55:18;;;;;;;18.23;14.07;;;;;;;6.74;100.00;101951.59;5090463;28;20205;-75
2021/10/09 01:57:43;;;;;;;17.47;15.77;;;;;;;6.80;100.00;101950.59;5094316;28;20276;-75
2021/10/09 02:00:12;;;;;;;15.57;14.07;;;;;;;6.90;100.00;101930.91;5077938;28;20547;-75
2021/10/09 02:02:37;;;;;;;15.20;13.80;;;;;;;6.96;100.00;101946.22;5076621;28;20170;-74
2021/10/09 02:05:03;;;;;;;14.43;12.57;;;;;;;6.84;100.00;101982.44;5076402;28;20525;-75
2021/10/09 02:07:30;;;;;;;17.47;13.27;;;;;;;6.83;100.00;101988.13;5094752;28;20657;-75
2021/10/09 02:09:55;;;;;;;16.00;13.23;;;;;;;6.85;100.00;101996.84;5094749;28;20173;-75
2021/10/09 02:12:21;;;;;;;14.87;12.57;;;;;;;6.74;100.00;101989.59;5094664;28;20590;-76
2021/10/09 02:14:55;;;;;;;19.00;13.80;;;;;;;6.66;100.00;101993.56;5076266;28;20196;-75
2021/10/09 02:25:44;;;;;;;13.83;12.33;;;;;;;6.54;100.00;101982.78;5094353;28;20196;-74
2021/10/09 02:28:10;;;;;;;17.13;12.80;;;;;;;6.59;100.00;102002.94;5094375;28;20182;-75
2021/10/09 02:30:36;;;;;;;13.10;11.80;;;;;;;6.61;100.00;101981.78;5076088;28;20264;-76
2021/10/09 02:33:01;;;;;;;14.80;13.30;;;;;;;6.47;100.00;102001.13;5094143;28;20178;-75
2021/10/09 02:35:27;;;;;;;16.40;13.07;;;;;;;6.48;100.00;102005.47;5093762;28;20274;-74
2021/10/09 02:37:52;;;;;;;15.37;12.87;;;;;;;6.45;100.00;101999.72;5094062;28;20231;-75
2021/10/09 02:40:19;;;;;;;15.40;13.13;;;;;;;6.39;100.00;102004.25;5094131;28;20170;-76
2021/10/09 02:42:44;;;;;;;13.50;12.20;;;;;;;6.32;100.00;101990.00;5075821;28;20190;-75
2021/10/09 02:45:09;;;;;;;16.63;13.63;;;;;;;6.24;100.00;101949.72;5093923;28;20166;-74
2021/10/09 02:47:35;;;;;;;14.63;13.33;;;;;;;6.18;100.00;102003.03;5094027;28;20178;-75
2021/10/09 02:50:02;;;;;;;14.87;12.23;;;;;;;6.16;100.00;101945.50;5093973;28;20174;-75
2021/10/09 02:52:27;;;;;;;15.10;13.23;;;;;;;6.13;100.00;101991.28;5093568;28;20185;-74
2021/10/09 02:54:53;;;;;;;13.40;12.17;;;;;;;6.18;100.00;101958.81;5075312;28;20205;-75
2021/10/09 02:57:18;;;;;;;12.97;11.77;;;;;;;6.10;100.00;101943.75;5093546;28;20227;-74
2021/10/09 02:59:43;;;;;;;12.27;10.97;;;;;;;5.97;100.00;101946.78;5093723;28;20181;-75
2021/10/09 03:02:09;;;;;;;14.03;12.20;;;;;;;5.84;100.00;101957.91;5075543;28;20180;-75
2021/10/09 03:04:34;;;;;;;13.73;12.43;;;;;;;5.73;100.00;101956.88;5093560;28;20507;-74
2021/10/09 03:07:00;;;;;;;14.90;11.37;;;;;;;5.62;100.00;101958.56;5093241;28;20193;-75
2021/10/09 03:09:25;;;;;;;14.07;12.47;;;;;;;5.28;100.00;101957.59;5093553;28;20170;-75
2021/10/09 03:11:50;;;;;;;14.03;12.53;;;;;;;5.14;100.00;101958.09;5075607;28;20170;-76
2021/10/09 03:14:16;;;;;;;13.90;12.37;;;;;;;4.99;100.00;101953.16;5075182;28;20201;-75
2021/10/09 03:16:41;;;;;;;15.50;12.67;;;;;;;4.89;100.00;101950.22;5093333;28;20288;-74
2021/10/09 03:19:06;;;;;;;14.43;12.93;;;;;;;4.93;100.00;101962.25;5093412;28;20193;-75
2021/10/09 03:21:32;;;;;;;13.50;12.10;;;;;;;4.98;100.00;101959.63;5093144;28;20177;-76
2021/10/09 03:23:57;;;;;;;17.13;12.47;;;;;;;4.90;100.00;101963.50;5074848;28;20282;-75
2021/10/09 03:26:22;;;;;;;15.50;13.90;;;;;;;4.97;100.00;101968.81;5075087;28;20227;-76
2021/10/09 03:28:48;;;;;;;13.60;12.30;;;;;;;5.05;100.00;101971.16;5093278;28;20178;-75
2021/10/09 03:31:13;;;;;;;18.93;13.90;;;;;;;4.76;100.00;101979.16;5074920;28;20722;-76
2021/10/09 03:33:38;;;;;;;13.87;12.67;;;;;;;4.62;100.00;101966.91;5092853;28;20821;-76
2021/10/09 03:36:05;;;;;;;15.47;13.40;;;;;;;4.52;100.00;101971.28;5092918;28;20205;-75
2021/10/09 03:38:30;;;;;;;18.27;14.10;;;;;;;4.41;100.00;101965.59;5074871;28;20189;-75
2021/10/09 03:41:08;;;;;;;22.13;13.67;;;;;;;4.36;100.00;101972.78;5093047;28;20174;-76
2021/10/09 03:43:33;;;;;;;16.67;15.10;;;;;;;4.35;100.00;101980.09;5074796;28;20166;-74
2021/10/09 03:46:04;;;;;;;18.80;14.87;;;;;;;4.31;100.00;101989.69;5092695;28;20661;-75
2021/10/09 03:53:32;;;;;;;19.03;14.57;;;;;;;4.30;100.00;102000.75;5093049;28;20249;-75
2021/10/09 03:55:58;;;;;;;15.70;12.57;;;;;;;4.44;100.00;102002.19;5074120;28;20206;-75
2021/10/09 03:58:23;;;;;;;18.40;14.13;;;;;;;4.43;100.00;102011.38;5092595;28;20180;-75
2021/10/09 04:00:48;;;;;;;14.57;13.17;;;;;;;4.43;100.00;101995.97;5092489;28;20254;-75
2021/10/09 04:03:14;;;;;;;18.23;13.73;;;;;;;4.42;100.00;102010.56;5092313;28;20178;-75
2021/10/09 04:05:39;;;;;;;14.20;12.97;;;;;;;4.69;100.00;102015.53;5092042;28;20189;-73
2021/10/09 04:08:06;;;;;;;16.33;14.60;;;;;;;4.75;100.00;102047.09;5074087;28;20182;-74
2021/10/09 04:10:34;;;;;;;16.07;13.50;;;;;;;4.81;100.00;102012.84;5092000;28;20174;-74
2021/10/09 04:12:59;;;;;;;13.53;12.27;;;;;;;4.83;100.00;102003.44;5092163;28;20185;-75
2021/10/09 04:15:25;;;;;;;16.80;11.77;;;;;;;4.62;100.00;102039.19;5073736;28;20236;-74
2021/10/09 04:17:50;;;;;;;13.23;12.03;;;;;;;4.71;100.00;101983.66;5092247;28;20661;-75
2021/10/09 04:20:15;;;;;;;16.27;13.07;;;;;;;4.77;100.00;101994.38;5091445;28;20174;-75
2021/10/09 04:22:41;;;;;;;12.83;11.70;;;;;;;4.66;100.00;102043.09;5073785;28;20181;-75
2021/10/09 04:25:07;;;;;;;13.53;12.23;;;;;;;4.51;100.00;101992.09;5073579;28;20212;-76
2021/10/09 04:27:32;;;;;;;14.07;12.60;;;;;;;4.40;100.00;102001.84;5091902;28;20687;-75
2021/10/09 04:29:57;;;;;;;13.83;12.50;;;;;;;4.44;100.00;102005.72;5073505;28;20567;-76
2021/10/09 04:32:23;;;;;;;17.30;13.33;;;;;;;4.35;100.00;102009.84;5091764;28;20622;-75
2021/10/09 04:34:48;;;;;;;17.37;12.93;;;;;;;4.23;100.00;101998.16;5073129;28;20639;-76
2021/10/09 04:37:13;;;;;;;17.13;13.20;;;;;;;4.34;100.00;102007.34;5073699;28;20174;-74
2021/10/09 04:39:39;;;;;;;16.27;13.67;;;;;;;4.40;100.00;102018.06;5073856;28;20182;-75
2021/10/09 04:42:06;;;;;;;14.50;12.47;;;;;;;4.45;100.00;102001.13;5092020;28;20261;-75
2021/10/09 04:44:32;;;;;;;13.87;12.57;;;;;;;4.48;100.00;102009.63;5073214;28;20174;-73
2021/10/09 04:46:57;;;;;;;17.20;13.60;;;;;;;4.33;100.00;102005.69;5091178;28;20208;-73
2021/10/09 04:49:23;;;;;;;16.87;13.93;;;;;;;4.21;100.00;102012.97;5091460;28;20642;-75
2021/10/09 04:51:48;;;;;;;15.37;13.40;;;;;;;4.21;100.00;102011.09;5073591;28;20173;-73
2021/10/09 04:54:13;;;;;;;17.07;13.70;;;;;;;4.17;100.00;102021.53;5073149;28;20621;-73
2021/10/09 04:56:40;;;;;;;15.93;13.93;;;;;;;4.18;100.00;102016.94;5091576;28;20672;-74
2021/10/09 04:59:05;;;;;;;18.13;14.80;;;;;;;4.23;100.00;102017.09;5091453;28;20174;-73
2021/10/09 05:01:31;;;;;;;14.73;13.33;;;;;;;4.35;100.00;102027.97;5073157;28;20180;-74
2021/10/09 05:03:56;;;;;;;24.03;15.33;;;;;;;4.24;100.00;102017.91;5091175;28;20655;-73
2021/10/09 05:06:21;;;;;;;16.03;13.50;;;;;;;4.36;100.00;102024.19;5073198;28;20211;-73
2021/10/09 05:08:46;;;;;;;15.33;13.77;;;;;;;4.37;100.00;102047.50;5073112;28;20173;-73
2021/10/09 05:11:12;;;;;;;18.50;14.77;;;;;;;4.35;100.00;102028.78;5073688;28;20174;-73
2021/10/09 05:13:37;;;;;;;16.57;14.10;;;;;;;4.30;100.00;102039.44;5099767;28;20286;-74
2021/10/09 05:16:03;;;;;;;17.27;14.60;;;;;;;4.28;100.00;102024.50;5074431;28;20205;-73
2021/10/09 05:18:28;;;;;;;14.93;13.43;;;;;;;4.18;100.00;102020.47;5073859;28;20227;-73
2021/10/09 05:20:53;;;;;;;15.23;13.27;;;;;;;4.16;100.00;102028.00;5091672;28;20177;-73
2021/10/09 05:23:19;;;;;;;16.43;12.93;;;;;;;4.07;100.00;102020.44;5091303;28;20215;-73
2021/10/09 05:25:44;;;;;;;13.47;12.07;;;;;;;3.93;100.00;102027.09;5090986;28;20177;-72
2021/10/09 05:28:23;;;;;;;20.23;12.63;;;;;;;3.88;100.00;102035.84;5073076;28;20170;-73
2021/10/09 05:30:49;;;;;;;22.50;13.97;;;;;;;3.82;100.00;102074.63;5072998;28;20174;-72
2021/10/09 05:33:58;;;;;;;14.60;13.07;;;;;;;3.77;100.00;102028.53;5090934;28;20574;-73
2021/10/09 05:36:05;;;;;;;14.93;13.40;;;;;;;3.70;100.00;102046.69;5082072;28;20225;-73
2021/10/09 05:38:31;;;;;;;18.20;14.40;;;;;;;3.68;100.00;102051.50;5072647;28;20273;-73
2021/10/09 05:40:57;;;;;;;15.27;13.23;;;;;;;3.65;100.00;102046.56;5090691;28;20273;-73
2021/10/09 05:43:24;;;;;;;16.40;14.63;;;;;;;3.59;100.00;102049.09;5090676;28;20170;-72
2021/10/09 05:45:50;;;;;;;16.77;14.53;;;;;;;3.58;100.00;102047.44;5090810;28;20170;-73
2021/10/09 05:48:15;;;;;;;19.27;15.10;;;;;;;3.59;100.00;102064.47;5090529;28;20170;-73
2021/10/09 05:53:30;;;;;;;38.27;24.87;;;;;;;3.55;100.00;102063.28;5090445;28;20388;-73
2021/10/09 05:55:58;;;;;;;46.47;24.67;;;;;;;3.53;100.00;102068.91;5090284;28;20189;-73
2021/10/09 05:58:30;;;;;;;16.40;14.73;;;;;;;3.58;100.00;102066.34;5072390;28;20205;-74
2021/10/09 06:26:12;;;;;;;14.20;10.70;;;;;;;4.59;100.00;102150.63;5090306;28;20173;-74
2021/10/09 07:00:36;;;;;;;17.23;11.97;;;;;;;4.88;100.00;102148.94;5094263;28;20227;-74
2021/10/09 07:03:01;;;;;;;18.10;12.50;;;;;;;4.78;100.00;102144.94;5093618;28;20178;-76
2021/10/09 07:05:27;;;;;;;14.93;12.90;;;;;;;4.82;100.00;102150.72;5075163;28;20318;-77
2021/10/09 07:07:58;;;;;;;15.80;14.23;;;;;;;4.80;100.00;102162.84;5093772;28;20591;-77
2021/10/09 07:10:23;;;;;;;17.83;13.43;;;;;;;4.82;100.00;102163.44;5093880;28;20256;-75
2021/10/09 07:12:49;;;;;;;16.43;13.50;;;;;;;4.90;100.00;102157.66;5093688;28;20272;-76
2021/10/09 07:15:15;;;;;;;17.30;13.33;;;;;;;4.94;100.00;102165.13;5092981;28;20548;-74
2021/10/09 07:17:41;;;;;;;14.57;13.13;;;;;;;5.04;100.00;102186.19;5075166;28;20224;-75
2021/10/09 07:20:07;;;;;;;14.27;12.93;;;;;;;5.16;100.00;102180.81;5093534;28;20166;-75
2021/10/09 07:22:34;;;;;;;13.20;12.00;;;;;;;5.27;100.00;102180.84;5075265;28;20227;-74
2021/10/09 07:25:00;;;;;;;15.83;13.70;;;;;;;5.23;100.00;102217.59;5093117;28;20189;-77
2021/10/09 07:27:25;;;;;;;15.83;12.30;;;;;;;5.29;100.00;102208.53;5075198;28;20177;-75
2021/10/09 07:29:51;;;;;;;16.07;13.57;;;;;;;5.23;100.00;102206.78;5093208;28;20166;-76
2021/10/09 07:32:16;;;;;;;15.03;12.00;;;;;;;5.37;100.00;102227.19;5074931;28;20166;-76
2021/10/09 07:34:42;;;;;;;15.90;12.97;;;;;;;5.45;100.00;102219.75;5074542;28;20637;-76
2021/10/09 07:37:08;;;;;;;21.93;13.23;;;;;;;5.60;100.00;102229.09;5093178;28;20764;-76
2021/10/09 07:39:33;;;;;;;14.10;12.63;;;;;;;5.66;100.00;102170.41;5093143;28;20166;-76
2021/10/09 07:41:59;;;;;;;13.83;11.70;;;;;;;5.75;100.00;102208.81;5074754;28;20181;-76
2021/10/09 07:44:25;;;;;;;16.10;11.60;;;;;;;5.87;100.00;102224.03;5092538;28;20180;-75
2021/10/09 07:46:51;;;;;;;13.40;12.13;;;;;;;5.85;100.00;102212.59;5092626;28;20181;-76
2021/10/09 07:49:17;;;;;;;23.53;12.93;;;;;;;5.95;100.00;102221.00;5074451;28;20170;-74
2021/10/09 07:51:42;;;;;;;12.67;11.43;;;;;;;6.06;100.00;102234.78;5074411;28;20690;-75
2021/10/09 07:54:08;;;;;;;17.90;12.03;;;;;;;6.00;100.00;102233.03;5072981;28;20227;-76
2021/10/09 07:56:33;;;;;;;16.10;12.90;;;;;;;6.01;100.00;102240.09;5074205;28;20237;-74
2021/10/09 07:58:58;;;;;;;15.60;11.43;;;;;;;6.06;100.00;102240.22;5092590;28;20326;-77
2021/10/09 08:01:24;;;;;;;10.80;9.90;;;;;;;6.11;100.00;102240.34;5092593;28;20197;-75
2021/10/09 08:03:50;;;;;;;12.73;11.53;;;;;;;6.18;100.00;102235.59;5074037;28;20272;-75
2021/10/09 08:06:16;;;;;;;19.63;12.30;;;;;;;6.32;100.00;102237.00;5073890;28;20196;-74
2021/10/09 08:08:41;;;;;;;14.10;12.60;;;;;;;6.29;100.00;102236.66;5074085;28;20178;-74
2021/10/09 08:11:06;;;;;;;13.80;12.30;;;;;;;6.24;100.00;102234.66;5073973;28;20184;-75
2021/10/09 08:13:32;;;;;;;15.73;13.53;;;;;;;6.22;100.00;102232.19;5074026;28;20194;-74
2021/10/09 08:15:58;;;;;;;21.97;12.73;;;;;;;6.38;100.00;102233.34;5091871;28;20194;-75
2021/10/09 08:18:24;;;;;;;17.20;10.73;;;;;;;6.59;100.00;102231.03;5090244;28;20880;-74
2021/10/09 08:20:57;;;;;;;15.97;11.83;;;;;;;6.65;100.00;102236.31;5067824;28;20213;-75
2021/10/09 08:23:27;;;;;;;16.27;13.00;;;;;;;6.69;100.00;102231.25;5089460;28;20182;-74
2021/10/09 08:26:06;;;;;;;16.27;12.83;;;;;;;6.70;100.00;102236.44;5092011;28;20174;-74
2021/10/09 08:36:34;;;;;;;15.97;12.80;;;;;;;7.02;100.00;102236.78;5091936;28;20204;-74
2021/10/09 08:38:59;;;;;;;12.70;11.37;;;;;;;7.20;100.00;102243.06;5073732;28;20208;-74
2021/10/09 08:41:25;;;;;;;12.53;11.23;;;;;;;7.21;100.00;102240.09;5073714;28;20170;-75
2021/10/09 08:43:51;;;;;;;18.93;11.73;;;;;;;7.41;100.00;102250.53;5091572;28;20214;-75
2021/10/09 08:46:18;;;;;;;20.80;11.70;;;;;;;7.51;100.00;102247.97;5073122;28;20174;-75
2021/10/09 08:48:47;;;;;;;11.87;10.67;;;;;;;7.64;100.00;102249.53;5073556;28;20174;-75
2021/10/09 08:51:12;;;;;;;16.83;12.33;;;;;;;7.83;100.00;102256.41;5089196;28;20186;-74
2021/10/09 08:53:43;;;;;;;11.90;10.00;;;;;;;7.72;100.00;102246.41;5091230;28;20213;-74
2021/10/09 08:56:10;;;;;;;13.37;11.47;;;;;;;7.62;100.00;102209.00;5077735;28;20255;-75
2021/10/09 08:58:42;;;;;;;19.97;10.67;;;;;;;7.73;100.00;102248.88;5091562;28;20595;-73
2021/10/09 09:01:24;;;;;;;14.03;12.27;;;;;;;7.88;100.00;102255.66;5091585;28;20260;-73
2021/10/09 09:04:21;;;;;;;16.37;12.53;;;;;;;7.99;100.00;102241.13;5073020;28;20170;-74
2021/10/09 09:40:06;;;;;;;10.97;10.07;;;;;;;9.21;100.00;102234.47;5090934;28;20188;-72
2021/10/09 09:42:31;;;;;;;12.27;11.03;;;;;;;9.48;100.00;102235.25;5090812;28;20693;-72
2021/10/09 09:44:59;;;;;;;23.23;13.20;;;;;;;9.52;100.00;102232.81;5087517;28;20268;-73
2021/10/09 09:47:36;;;;;;;17.20;13.53;;;;;;;9.42;100.00;102217.22;5078158;28;20181;-73
2021/10/09 09:50:07;;;;;;;14.10;12.00;;;;;;;9.53;100.00;102224.38;5090976;28;20209;-72
2021/10/09 09:52:35;;;;;;;14.13;12.23;;;;;;;9.58;100.00;102223.63;5087859;28;20186;-72
2021/10/09 09:55:02;;;;;;;13.93;11.47;;;;;;;9.65;100.00;102224.19;5090185;28;20204;-72
2021/10/09 09:57:29;;;;;;;13.60;12.20;;;;;;;9.79;99.92;102227.31;5088106;28;20664;-72
2021/10/09 09:59:57;;;;;;;14.53;13.10;;;;;;;10.00;99.28;102228.28;5070969;28;20213;-72
2021/10/09 10:02:26;;;;;;;15.50;12.67;;;;;;;10.12;96.50;102226.16;5090794;28;20246;-72
2021/10/09 10:04:52;;;;;;;13.03;11.73;;;;;;;10.26;95.99;102226.53;5090456;28;20257;-72
2021/10/09 10:07:18;;;;;;;14.40;11.00;;;;;;;10.31;94.89;102224.66;5090499;28;20300;-72
2021/10/09 10:09:44;;;;;;;13.93;12.57;;;;;;;10.40;94.50;102223.03;5090803;28;20173;-72
2021/10/09 10:12:09;;;;;;;17.93;13.10;;;;;;;10.30;94.48;102223.03;5072463;28;20574;-72
2021/10/09 10:14:35;;;;;;;14.53;10.40;;;;;;;10.41;94.99;102221.13;5090454;28;20213;-72
2021/10/09 10:17:01;;;;;;;13.47;12.13;;;;;;;10.40;92.57;102223.03;5072827;28;20182;-73
2021/10/09 10:19:57;;;;;;;15.27;12.40;;;;;;;10.40;93.84;102214.03;5094150;28;20180;-72
2021/10/09 10:22:34;;;;;;;14.33;11.93;;;;;;;10.66;93.81;102221.25;5080295;28;20201;-73
2021/10/09 10:25:00;;;;;;;12.47;11.00;;;;;;;10.59;91.97;102226.16;5092684;28;20189;-72
2021/10/09 10:27:32;;;;;;;13.37;11.83;;;;;;;10.59;91.33;102214.41;5094774;28;20526;-73
2021/10/09 10:30:17;;;;;;;15.73;11.80;;;;;;;10.54;89.86;102215.19;5094902;28;20254;-73
2021/10/09 10:32:56;;;;;;;13.33;10.87;;;;;;;10.62;88.51;102211.94;5093861;28;20239;-72
2021/10/09 10:35:34;;;;;;;13.80;10.80;;;;;;;10.69;87.29;102208.94;5093605;28;20225;-73
2021/10/09 10:38:07;;;;;;;16.03;12.27;;;;;;;10.63;87.54;102201.84;5094139;28;20197;-72
2021/10/09 10:40:49;;;;;;;12.70;10.47;;;;;;;10.86;87.61;102211.47;5092681;28;20499;-73
2021/10/09 10:43:48;;;;;;;12.77;11.47;;;;;;;10.89;86.43;102206.28;5093878;28;20227;-72
2021/10/09 10:46:20;;;;;;;13.40;11.87;;;;;;;10.98;85.06;102196.44;5093988;28;20162;-73
2021/10/09 10:48:58;;;;;;;11.97;10.80;;;;;;;11.03;83.65;102203.84;5092739;28;20252;-72
2021/10/09 10:51:34;;;;;;;10.33;9.40;;;;;;;11.10;83.82;102209.03;5092848;28;20181;-72
2021/10/09 10:56:59;;;;;;;11.27;9.37;;;;;;;11.58;83.06;102205.81;5093729;28;20266;-73
2021/10/09 10:59:52;;;;;;;16.20;8.63;;;;;;;11.67;77.13;102208.78;5093786;28;20177;-72
2021/10/09 11:02:39;;;;;;;8.50;7.63;;;;;;;11.79;73.35;102205.81;5093724;28;20255;-72
2021/10/09 11:05:08;;;;;;;11.53;8.97;;;;;;;11.87;73.27;102197.84;5092189;28;20468;-72
2021/10/09 11:07:36;;;;;;;9.23;7.30;;;;;;;11.96;70.91;102203.56;5091341;28;20261;-72
2021/10/09 11:10:03;;;;;;;11.23;8.60;;;;;;;12.12;69.79;102193.38;5086311;28;20686;-72
2021/10/09 11:12:31;;;;;;;8.27;7.47;;;;;;;12.20;69.14;102199.13;5090804;28;20322;-72
2021/10/09 11:15:06;;;;;;;14.70;8.17;;;;;;;12.11;66.05;102187.09;5092743;28;20727;-72
2021/10/09 11:17:39;;;;;;;9.27;7.10;;;;;;;12.12;65.60;102183.25;5093040;28;20176;-72
2021/10/09 11:20:07;;;;;;;8.67;6.83;;;;;;;12.21;68.13;102178.84;5075327;28;20169;-72
2021/10/09 11:22:42;;;;;;;10.37;8.37;;;;;;;12.32;68.19;102179.63;5075125;28;20636;-72
2021/10/09 11:25:08;;;;;;;12.87;7.93;;;;;;;12.22;69.02;102187.88;5074695;28;20181;-72
2021/10/09 11:27:38;;;;;;;9.37;8.37;;;;;;;12.29;68.22;102182.09;5093208;28;20182;-72
2021/10/09 11:30:09;;;;;;;13.97;7.87;;;;;;;12.41;67.74;102179.84;5075079;28;20177;-72
2021/10/09 11:32:38;;;;;;;12.40;7.73;;;;;;;12.49;65.36;102176.53;5074845;28;20756;-72
2021/10/09 11:35:06;;;;;;;9.23;7.23;;;;;;;12.52;65.02;102170.50;5093247;28;20624;-71
2021/10/09 11:37:34;;;;;;;6.83;5.90;;;;;;;12.57;59.35;102183.34;5075195;28;20264;-71
2021/10/09 11:40:03;;;;;;;11.23;5.87;;;;;;;12.79;61.91;102178.28;5092968;28;20649;-72
2021/10/09 11:42:32;;;;;;;12.80;8.20;;;;;;;12.82;63.63;102175.78;5092947;28;20196;-71
2021/10/09 11:45:25;;;;;;;9.87;7.03;;;;;;;12.89;59.95;102174.69;5092550;28;20673;-72
2021/10/09 11:53:40;;;;;;;6.13;5.53;;;;;;;13.08;54.43;102179.19;5102738;28;20188;-71
2021/10/09 11:56:08;;;;;;;5.90;5.30;;;;;;;13.28;56.71;102185.66;5096182;28;20201;-71
2021/10/09 11:58:54;;;;;;;6.37;5.73;;;;;;;13.08;54.37;102168.22;5094329;28;20444;-72
2021/10/09 12:01:42;;;;;;;6.67;5.07;;;;;;;13.17;53.81;102171.19;5074809;28;20178;-72
2021/10/09 12:04:16;;;;;;;6.43;5.67;;;;;;;13.48;55.42;102176.44;5074445;28;20173;-72
2021/10/09 12:06:44;;;;;;;6.30;5.30;;;;;;;13.47;54.58;102164.66;5092485;28;20276;-72
2021/10/09 12:09:10;;;;;;;7.13;4.27;;;;;;;13.50;53.62;102169.56;5087886;28;20548;-72
2021/10/09 12:11:35;;;;;;;7.97;5.67;;;;;;;13.32;53.06;102162.03;5092591;28;20182;-71
2021/10/09 12:14:06;;;;;;;6.80;5.60;;;;;;;13.13;52.28;102152.81;5092149;28;20178;-72
2021/10/09 12:16:42;;;;;;;6.80;4.67;;;;;;;13.37;54.09;102159.25;5073151;28;20205;-72
2021/10/09 12:19:13;;;;;;;5.03;4.50;;;;;;;13.48;52.79;102160.78;5092494;28;20169;-71
2021/10/09 12:21:51;;;;;;;7.27;4.97;;;;;;;13.28;51.47;102147.22;5073981;28;20178;-77
2021/10/09 12:24:19;;;;;;;7.93;5.23;;;;;;;13.20;51.49;102145.94;5091588;28;20236;-72
2021/10/09 12:27:02;;;;;;;12.57;4.83;;;;;;;13.35;51.92;102153.22;5073233;28;20209;-72
2021/10/09 12:29:28;;;;;;;6.13;4.43;;;;;;;13.26;52.23;102135.72;5073689;28;20268;-72
2021/10/09 12:31:54;;;;;;;8.53;5.40;;;;;;;12.95;50.55;102133.19;5073860;28;20212;-72
2021/10/09 12:34:34;;;;;;;5.23;4.37;;;;;;;13.13;51.71;102137.16;5073583;28;20629;-72
2021/10/09 12:37:18;;;;;;;11.20;5.20;;;;;;;13.26;51.58;102132.97;5091718;28;20206;-72
2021/10/09 12:39:45;;;;;;;6.83;4.63;;;;;;;13.52;51.36;102139.06;5072945;28;20198;-72
2021/10/09 12:42:12;;;;;;;5.47;4.67;;;;;;;13.53;51.13;102132.44;5091659;28;20219;-72
2021/10/09 12:44:37;;;;;;;8.03;4.60;;;;;;;13.63;53.64;102151.59;5073109;28;20542;-72
2021/10/09 12:47:03;;;;;;;8.17;5.53;;;;;;;13.63;53.38;102133.19;5073445;28;20181;-72
2021/10/09 12:49:28;;;;;;;6.83;5.93;;;;;;;13.45;52.49;102135.81;5091598;28;20176;-72
2021/10/09 12:51:53;;;;;;;10.40;6.33;;;;;;;13.17;53.47;102126.44;5073295;28;20235;-72
2021/10/09 12:54:19;;;;;;;5.73;5.23;;;;;;;13.24;53.77;102122.28;5091485;28;20256;-72
2021/10/09 12:56:47;;;;;;;6.07;5.47;;;;;;;13.43;53.90;102130.63;5073259;28;20267;-72
2021/10/09 12:59:12;;;;;;;5.30;4.80;;;;;;;13.42;53.77;102123.47;5091666;28;20231;-72
2021/10/09 13:01:38;;;;;;;6.43;4.40;;;;;;;13.67;53.81;102136.97;5091374;28;20174;-72
2021/10/09 13:04:04;;;;;;;6.70;4.33;;;;;;;13.93;53.38;102133.94;5090883;28;20174;-71
2021/10/09 13:06:29;;;;;;;4.77;4.37;;;;;;;13.88;54.23;102126.56;5073016;28;20547;-72
2021/10/09 13:08:56;;;;;;;5.67;5.00;;;;;;;13.94;53.36;102141.09;5091055;28;20177;-72
2021/10/09 13:11:28;;;;;;;5.70;5.10;;;;;;;13.92;54.37;102129.56;5091128;28;20162;-72
2021/10/09 13:13:53;;;;;;;5.23;4.60;;;;;;;14.07;53.71;102128.56;5090854;28;20166;-72
2021/10/09 13:16:18;;;;;;;6.27;4.87;;;;;;;14.09;52.77;102132.66;5090971;28;20595;-72
2021/10/09 13:18:44;;;;;;;5.80;5.20;;;;;;;13.93;52.35;102118.28;5091369;28;20563;-72